Weather at Talu Airport

Public forecast

Using degrees Celsius for public forecast. Weather courtesy of forecast.io.

Closest aviation weather report (METAR) to Talu Airport

Closest report is Jomo Kenyatta International Airport, 10.4 nm (19.3 km) S.

2022/12/04 04:00 (retrieved 49 minutes ago)

HKJK 040400Z 05011KT 9999 -RA BKN016 OVC080 17/17 Q1020 BECMG 9999 NSW BKN018 OVC080

Closest aviation forecast (TAF) to Talu Airport

Forecast is more than 6 hours old.

Closest forecast is Jomo Kenyatta International Airport, 10.4 nm (19.3 km) S.

2022/12/03 18:54 (retrieved 10 hours ago)

TAF TAF HKJK 031700Z 0318/0424 04010KT 9999 FEW022 BECMG 0320/0323 CAVOK BECMG 0408/0411 06015KT 9999 FEW025CB BKN026 BECMG 0420/0423 04005KT CAVOK